sensor_id;sensor_type;location;lat;lon;timestamp;P1;durP1;ratioP1;P2;durP2;ratioP2
26157;SDS011;67284;44.782;10.282;2023-08-01T00:03:28;6.38;;;4.18;;
26157;SDS011;67284;44.782;10.282;2023-08-01T00:08:20;6.70;;;4.40;;
26157;SDS011;67284;44.782;10.282;2023-08-01T00:13:12;6.53;;;4.43;;
26157;SDS011;67284;44.782;10.282;2023-08-01T00:18:04;6.93;;;4.75;;
26157;SDS011;67284;44.782;10.282;2023-08-01T00:22:56;8.32;;;5.10;;
26157;SDS011;67284;44.782;10.282;2023-08-01T00:27:48;6.22;;;5.03;;
26157;SDS011;67284;44.782;10.282;2023-08-01T00:32:42;8.02;;;4.60;;
26157;SDS011;67284;44.782;10.282;2023-08-01T00:37:34;6.25;;;4.75;;
26157;SDS011;67284;44.782;10.282;2023-08-01T00:42:26;7.47;;;5.10;;
26157;SDS011;67284;44.782;10.282;2023-08-01T00:47:18;8.80;;;5.13;;
26157;SDS011;67284;44.782;10.282;2023-08-01T00:52:10;7.60;;;4.90;;
26157;SDS011;67284;44.782;10.282;2023-08-01T00:57:05;7.15;;;4.70;;
26157;SDS011;67284;44.782;10.282;2023-08-01T01:01:58;8.55;;;4.43;;
26157;SDS011;67284;44.782;10.282;2023-08-01T01:06:57;8.00;;;5.63;;
26157;SDS011;67284;44.782;10.282;2023-08-01T01:11:50;19.60;;;6.78;;
26157;SDS011;67284;44.782;10.282;2023-08-01T01:16:42;18.52;;;6.30;;
26157;SDS011;67284;44.782;10.282;2023-08-01T01:21:35;8.80;;;4.78;;
26157;SDS011;67284;44.782;10.282;2023-08-01T01:27:01;7.90;;;5.10;;
26157;SDS011;67284;44.782;10.282;2023-08-01T01:31:56;7.43;;;4.88;;
26157;SDS011;67284;44.782;10.282;2023-08-01T01:36:49;5.75;;;4.20;;
26157;SDS011;67284;44.782;10.282;2023-08-01T01:41:41;7.07;;;5.03;;
26157;SDS011;67284;44.782;10.282;2023-08-01T01:46:33;7.55;;;5.10;;
26157;SDS011;67284;44.782;10.282;2023-08-01T01:51:26;9.73;;;4.75;;
26157;SDS011;67284;44.782;10.282;2023-08-01T01:56:18;5.65;;;4.25;;
26157;SDS011;67284;44.782;10.282;2023-08-01T02:01:10;7.70;;;4.53;;
26157;SDS011;67284;44.782;10.282;2023-08-01T02:06:02;5.85;;;4.38;;
26157;SDS011;67284;44.782;10.282;2023-08-01T02:10:54;8.35;;;4.68;;
26157;SDS011;67284;44.782;10.282;2023-08-01T02:15:49;6.55;;;4.38;;
26157;SDS011;67284;44.782;10.282;2023-08-01T02:20:41;14.50;;;5.00;;
26157;SDS011;67284;44.782;10.282;2023-08-01T02:25:37;7.60;;;4.55;;
26157;SDS011;67284;44.782;10.282;2023-08-01T02:30:33;7.25;;;4.40;;
26157;SDS011;67284;44.782;10.282;2023-08-01T02:35:25;5.95;;;4.43;;
26157;SDS011;67284;44.782;10.282;2023-08-01T02:40:18;5.65;;;4.35;;
26157;SDS011;67284;44.782;10.282;2023-08-01T02:45:09;7.50;;;4.60;;
26157;SDS011;67284;44.782;10.282;2023-08-01T02:50:01;9.90;;;4.45;;
26157;SDS011;67284;44.782;10.282;2023-08-01T02:54:54;4.70;;;4.07;;
26157;SDS011;67284;44.782;10.282;2023-08-01T02:59:46;4.57;;;4.15;;
26157;SDS011;67284;44.782;10.282;2023-08-01T03:04:38;9.25;;;4.65;;
26157;SDS011;67284;44.782;10.282;2023-08-01T03:09:37;6.82;;;4.90;;
26157;SDS011;67284;44.782;10.282;2023-08-01T03:14:29;6.90;;;4.68;;
26157;SDS011;67284;44.782;10.282;2023-08-01T03:19:21;5.35;;;4.00;;
26157;SDS011;67284;44.782;10.282;2023-08-01T03:24:13;6.13;;;4.65;;
26157;SDS011;67284;44.782;10.282;2023-08-01T03:29:04;8.55;;;4.80;;
26157;SDS011;67284;44.782;10.282;2023-08-01T03:33:56;6.55;;;4.57;;
26157;SDS011;67284;44.782;10.282;2023-08-01T03:38:49;7.72;;;4.90;;
26157;SDS011;67284;44.782;10.282;2023-08-01T03:43:41;7.90;;;4.95;;
26157;SDS011;67284;44.782;10.282;2023-08-01T03:48:33;6.60;;;4.75;;
26157;SDS011;67284;44.782;10.282;2023-08-01T03:53:25;6.32;;;5.00;;
26157;SDS011;67284;44.782;10.282;2023-08-01T03:58:17;9.73;;;4.25;;
26157;SDS011;67284;44.782;10.282;2023-08-01T04:03:09;7.07;;;4.43;;
26157;SDS011;67284;44.782;10.282;2023-08-01T04:08:01;5.78;;;4.32;;
26157;SDS011;67284;44.782;10.282;2023-08-01T04:12:53;6.22;;;3.75;;
26157;SDS011;67284;44.782;10.282;2023-08-01T04:17:45;6.65;;;3.85;;
26157;SDS011;67284;44.782;10.282;2023-08-01T04:22:37;5.05;;;3.70;;
26157;SDS011;67284;44.782;10.282;2023-08-01T04:27:29;11.18;;;4.05;;
26157;SDS011;67284;44.782;10.282;2023-08-01T04:32:22;7.80;;;4.07;;
26157;SDS011;67284;44.782;10.282;2023-08-01T04:37:14;4.72;;;3.50;;
26157;SDS011;67284;44.782;10.282;2023-08-01T04:42:05;4.25;;;3.38;;
26157;SDS011;67284;44.782;10.282;2023-08-01T04:46:58;5.00;;;2.97;;
26157;SDS011;67284;44.782;10.282;2023-08-01T04:51:50;4.18;;;3.67;;
26157;SDS011;67284;44.782;10.282;2023-08-01T04:56:42;5.00;;;3.22;;
26157;SDS011;67284;44.782;10.282;2023-08-01T05:01:34;5.28;;;3.25;;
26157;SDS011;67284;44.782;10.282;2023-08-01T05:06:25;6.85;;;4.10;;
26157;SDS011;67284;44.782;10.282;2023-08-01T05:11:19;5.68;;;3.45;;
26157;SDS011;67284;44.782;10.282;2023-08-01T05:16:11;3.92;;;3.20;;
26157;SDS011;67284;44.782;10.282;2023-08-01T05:21:03;6.63;;;3.65;;
26157;SDS011;67284;44.782;10.282;2023-08-01T05:25:55;5.30;;;3.53;;
26157;SDS011;67284;44.782;10.282;2023-08-01T05:30:47;5.13;;;4.18;;
26157;SDS011;67284;44.782;10.282;2023-08-01T05:35:38;6.32;;;3.80;;
26157;SDS011;67284;44.782;10.282;2023-08-01T05:40:30;4.93;;;3.55;;
26157;SDS011;67284;44.782;10.282;2023-08-01T05:45:22;4.53;;;3.38;;
26157;SDS011;67284;44.782;10.282;2023-08-01T05:50:14;9.50;;;3.83;;
26157;SDS011;67284;44.782;10.282;2023-08-01T05:55:06;5.80;;;3.95;;
26157;SDS011;67284;44.782;10.282;2023-08-01T05:59:58;5.55;;;3.60;;
26157;SDS011;67284;44.782;10.282;2023-08-01T06:04:50;8.07;;;3.50;;
26157;SDS011;67284;44.782;10.282;2023-08-01T06:09:42;7.25;;;3.63;;
26157;SDS011;67284;44.782;10.282;2023-08-01T06:14:33;4.05;;;3.15;;
26157;SDS011;67284;44.782;10.282;2023-08-01T06:19:26;9.18;;;3.45;;
26157;SDS011;67284;44.782;10.282;2023-08-01T06:24:17;6.65;;;4.18;;
26157;SDS011;67284;44.782;10.282;2023-08-01T06:29:09;11.90;;;4.55;;
26157;SDS011;67284;44.782;10.282;2023-08-01T06:34:01;9.52;;;4.32;;
26157;SDS011;67284;44.782;10.282;2023-08-01T06:38:53;5.35;;;4.00;;
26157;SDS011;67284;44.782;10.282;2023-08-01T06:43:45;10.10;;;4.50;;
26157;SDS011;67284;44.782;10.282;2023-08-01T06:48:37;7.93;;;4.90;;
26157;SDS011;67284;44.782;10.282;2023-08-01T06:53:29;7.97;;;4.68;;
26157;SDS011;67284;44.782;10.282;2023-08-01T06:58:20;8.00;;;4.07;;
26157;SDS011;67284;44.782;10.282;2023-08-01T07:03:12;5.45;;;4.38;;
26157;SDS011;67284;44.782;10.282;2023-08-01T07:08:04;6.88;;;4.63;;
26157;SDS011;67284;44.782;10.282;2023-08-01T07:12:56;9.65;;;4.30;;
26157;SDS011;67284;44.782;10.282;2023-08-01T07:17:49;9.43;;;4.63;;
26157;SDS011;67284;44.782;10.282;2023-08-01T07:22:41;6.07;;;4.45;;
26157;SDS011;67284;44.782;10.282;2023-08-01T07:27:34;7.78;;;4.80;;
26157;SDS011;67284;44.782;10.282;2023-08-01T07:32:26;11.40;;;4.95;;
26157;SDS011;67284;44.782;10.282;2023-08-01T07:37:19;10.23;;;5.20;;
26157;SDS011;67284;44.782;10.282;2023-08-01T07:42:11;7.78;;;4.38;;
26157;SDS011;67284;44.782;10.282;2023-08-01T07:47:03;9.68;;;5.75;;
26157;SDS011;67284;44.782;10.282;2023-08-01T07:51:55;8.25;;;4.82;;
26157;SDS011;67284;44.782;10.282;2023-08-01T07:56:47;8.82;;;5.38;;
26157;SDS011;67284;44.782;10.282;2023-08-01T08:01:40;8.05;;;4.93;;
26157;SDS011;67284;44.782;10.282;2023-08-01T08:06:32;9.77;;;5.07;;
26157;SDS011;67284;44.782;10.282;2023-08-01T08:11:24;12.00;;;6.13;;
26157;SDS011;67284;44.782;10.282;2023-08-01T08:16:16;7.95;;;5.82;;
26157;SDS011;67284;44.782;10.282;2023-08-01T08:21:08;8.10;;;5.18;;
26157;SDS011;67284;44.782;10.282;2023-08-01T08:26:00;9.15;;;5.32;;
26157;SDS011;67284;44.782;10.282;2023-08-01T08:30:52;12.20;;;5.18;;
26157;SDS011;67284;44.782;10.282;2023-08-01T08:35:44;11.05;;;5.38;;
26157;SDS011;67284;44.782;10.282;2023-08-01T08:40:36;12.65;;;5.55;;
26157;SDS011;67284;44.782;10.282;2023-08-01T08:45:33;14.30;;;6.20;;
26157;SDS011;67284;44.782;10.282;2023-08-01T08:50:26;9.32;;;5.50;;
26157;SDS011;67284;44.782;10.282;2023-08-01T08:55:20;11.52;;;6.07;;
26157;SDS011;67284;44.782;10.282;2023-08-01T09:00:17;12.23;;;5.97;;
26157;SDS011;67284;44.782;10.282;2023-08-01T09:05:12;6.80;;;4.78;;
26157;SDS011;67284;44.782;10.282;2023-08-01T09:10:04;6.68;;;5.32;;
26157;SDS011;67284;44.782;10.282;2023-08-01T09:14:56;7.80;;;5.05;;
26157;SDS011;67284;44.782;10.282;2023-08-01T09:19:54;10.88;;;5.50;;
26157;SDS011;67284;44.782;10.282;2023-08-01T09:24:57;7.60;;;5.43;;
26157;SDS011;67284;44.782;10.282;2023-08-01T09:29:49;7.15;;;4.63;;
26157;SDS011;67284;44.782;10.282;2023-08-01T09:34:41;9.60;;;5.43;;
26157;SDS011;67284;44.782;10.282;2023-08-01T09:39:34;11.10;;;6.25;;
26157;SDS011;67284;44.782;10.282;2023-08-01T09:44:27;10.35;;;5.45;;
26157;SDS011;67284;44.782;10.282;2023-08-01T09:49:20;7.28;;;5.13;;
26157;SDS011;67284;44.782;10.282;2023-08-01T09:54:12;8.60;;;5.30;;
26157;SDS011;67284;44.782;10.282;2023-08-01T09:59:04;12.93;;;5.40;;
26157;SDS011;67284;44.782;10.282;2023-08-01T10:03:56;12.48;;;5.25;;
26157;SDS011;67284;44.782;10.282;2023-08-01T10:08:49;12.48;;;6.32;;
26157;SDS011;67284;44.782;10.282;2023-08-01T10:13:42;12.02;;;6.18;;
26157;SDS011;67284;44.782;10.282;2023-08-01T10:18:35;16.42;;;5.93;;
26157;SDS011;67284;44.782;10.282;2023-08-01T10:23:29;14.93;;;5.78;;
26157;SDS011;67284;44.782;10.282;2023-08-01T10:28:38;13.93;;;5.97;;
26157;SDS011;67284;44.782;10.282;2023-08-01T10:33:34;10.93;;;6.13;;
26157;SDS011;67284;44.782;10.282;2023-08-01T10:38:26;16.77;;;6.35;;
26157;SDS011;67284;44.782;10.282;2023-08-01T10:43:21;10.50;;;6.15;;
26157;SDS011;67284;44.782;10.282;2023-08-01T10:48:14;13.55;;;6.20;;
26157;SDS011;67284;44.782;10.282;2023-08-01T10:53:07;13.10;;;6.35;;
26157;SDS011;67284;44.782;10.282;2023-08-01T10:58:00;9.50;;;5.70;;
26157;SDS011;67284;44.782;10.282;2023-08-01T11:02:52;11.82;;;6.50;;
26157;SDS011;67284;44.782;10.282;2023-08-01T11:07:53;9.63;;;5.28;;
26157;SDS011;67284;44.782;10.282;2023-08-01T11:12:47;10.95;;;5.85;;
26157;SDS011;67284;44.782;10.282;2023-08-01T11:17:40;13.00;;;6.32;;
26157;SDS011;67284;44.782;10.282;2023-08-01T11:22:34;12.27;;;6.82;;
26157;SDS011;67284;44.782;10.282;2023-08-01T11:27:26;12.15;;;5.60;;
26157;SDS011;67284;44.782;10.282;2023-08-01T11:32:19;13.77;;;6.47;;
26157;SDS011;67284;44.782;10.282;2023-08-01T11:37:18;10.88;;;6.35;;
26157;SDS011;67284;44.782;10.282;2023-08-01T11:42:17;14.07;;;6.30;;
26157;SDS011;67284;44.782;10.282;2023-08-01T11:47:10;10.80;;;6.57;;
26157;SDS011;67284;44.782;10.282;2023-08-01T11:52:04;10.32;;;6.13;;
26157;SDS011;67284;44.782;10.282;2023-08-01T11:57:02;10.25;;;6.43;;
26157;SDS011;67284;44.782;10.282;2023-08-01T12:01:54;15.15;;;7.43;;
26157;SDS011;67284;44.782;10.282;2023-08-01T12:06:46;10.18;;;6.22;;
26157;SDS011;67284;44.782;10.282;2023-08-01T12:11:38;9.50;;;5.95;;
26157;SDS011;67284;44.782;10.282;2023-08-01T12:16:31;16.17;;;5.78;;
26157;SDS011;67284;44.782;10.282;2023-08-01T12:21:23;11.57;;;5.75;;
26157;SDS011;67284;44.782;10.282;2023-08-01T12:26:16;11.43;;;6.10;;
26157;SDS011;67284;44.782;10.282;2023-08-01T12:31:08;11.73;;;6.20;;
26157;SDS011;67284;44.782;10.282;2023-08-01T12:36:00;13.80;;;6.18;;
26157;SDS011;67284;44.782;10.282;2023-08-01T12:40:53;12.30;;;5.78;;
26157;SDS011;67284;44.782;10.282;2023-08-01T12:45:46;10.65;;;5.78;;
26157;SDS011;67284;44.782;10.282;2023-08-01T12:50:44;14.52;;;6.07;;
26157;SDS011;67284;44.782;10.282;2023-08-01T12:55:43;10.80;;;5.70;;
26157;SDS011;67284;44.782;10.282;2023-08-01T13:00:39;8.10;;;4.93;;
26157;SDS011;67284;44.782;10.282;2023-08-01T13:05:35;10.73;;;6.40;;
26157;SDS011;67284;44.782;10.282;2023-08-01T13:10:35;9.48;;;6.07;;
26157;SDS011;67284;44.782;10.282;2023-08-01T13:15:28;10.25;;;6.13;;
26157;SDS011;67284;44.782;10.282;2023-08-01T13:20:21;15.65;;;6.60;;
26157;SDS011;67284;44.782;10.282;2023-08-01T13:25:13;12.10;;;6.75;;
26157;SDS011;67284;44.782;10.282;2023-08-01T13:30:05;11.95;;;6.13;;
26157;SDS011;67284;44.782;10.282;2023-08-01T13:34:58;11.18;;;5.40;;
26157;SDS011;67284;44.782;10.282;2023-08-01T13:39:50;11.88;;;6.15;;
26157;SDS011;67284;44.782;10.282;2023-08-01T13:44:42;10.50;;;6.07;;
26157;SDS011;67284;44.782;10.282;2023-08-01T13:49:34;14.60;;;5.88;;
26157;SDS011;67284;44.782;10.282;2023-08-01T13:54:26;10.48;;;6.28;;
26157;SDS011;67284;44.782;10.282;2023-08-01T13:59:18;8.98;;;5.95;;
26157;SDS011;67284;44.782;10.282;2023-08-01T14:04:11;10.60;;;5.90;;
26157;SDS011;67284;44.782;10.282;2023-08-01T14:09:05;9.50;;;5.18;;
26157;SDS011;67284;44.782;10.282;2023-08-01T14:13:56;11.00;;;5.75;;
26157;SDS011;67284;44.782;10.282;2023-08-01T14:18:49;8.93;;;5.28;;
26157;SDS011;67284;44.782;10.282;2023-08-01T14:23:41;10.45;;;6.15;;
26157;SDS011;67284;44.782;10.282;2023-08-01T14:28:33;9.00;;;5.82;;
26157;SDS011;67284;44.782;10.282;2023-08-01T14:33:25;13.20;;;5.55;;
26157;SDS011;67284;44.782;10.282;2023-08-01T14:38:17;15.15;;;6.38;;
26157;SDS011;67284;44.782;10.282;2023-08-01T14:43:09;8.95;;;5.18;;
26157;SDS011;67284;44.782;10.282;2023-08-01T14:48:01;8.15;;;5.18;;
26157;SDS011;67284;44.782;10.282;2023-08-01T14:52:53;12.70;;;5.55;;
26157;SDS011;67284;44.782;10.282;2023-08-01T14:57:45;10.48;;;5.40;;
26157;SDS011;67284;44.782;10.282;2023-08-01T15:02:37;14.27;;;6.35;;
26157;SDS011;67284;44.782;10.282;2023-08-01T15:07:29;9.68;;;5.72;;
26157;SDS011;67284;44.782;10.282;2023-08-01T15:12:23;7.82;;;5.25;;
26157;SDS011;67284;44.782;10.282;2023-08-01T15:17:16;10.02;;;6.07;;
26157;SDS011;67284;44.782;10.282;2023-08-01T15:22:07;12.35;;;6.43;;
26157;SDS011;67284;44.782;10.282;2023-08-01T15:26:59;8.00;;;5.50;;
26157;SDS011;67284;44.782;10.282;2023-08-01T15:31:51;11.40;;;6.07;;
26157;SDS011;67284;44.782;10.282;2023-08-01T15:36:43;9.77;;;5.38;;
26157;SDS011;67284;44.782;10.282;2023-08-01T15:41:38;9.68;;;5.45;;
26157;SDS011;67284;44.782;10.282;2023-08-01T15:46:30;8.20;;;5.10;;
26157;SDS011;67284;44.782;10.282;2023-08-01T15:51:22;10.70;;;5.22;;
26157;SDS011;67284;44.782;10.282;2023-08-01T15:56:14;10.18;;;5.28;;
26157;SDS011;67284;44.782;10.282;2023-08-01T16:01:06;9.52;;;4.57;;
26157;SDS011;67284;44.782;10.282;2023-08-01T16:06:02;11.27;;;5.63;;
26157;SDS011;67284;44.782;10.282;2023-08-01T16:10:54;8.82;;;5.53;;
26157;SDS011;67284;44.782;10.282;2023-08-01T16:15:46;6.63;;;4.25;;
26157;SDS011;67284;44.782;10.282;2023-08-01T16:20:38;11.30;;;5.28;;
26157;SDS011;67284;44.782;10.282;2023-08-01T16:25:30;12.95;;;4.97;;
26157;SDS011;67284;44.782;10.282;2023-08-01T16:30:22;10.70;;;5.40;;
26157;SDS011;67284;44.782;10.282;2023-08-01T16:35:14;10.07;;;4.88;;
26157;SDS011;67284;44.782;10.282;2023-08-01T16:40:06;6.97;;;4.97;;
26157;SDS011;67284;44.782;10.282;2023-08-01T16:44:58;8.70;;;5.80;;
26157;SDS011;67284;44.782;10.282;2023-08-01T16:49:54;14.52;;;5.47;;
26157;SDS011;67284;44.782;10.282;2023-08-01T16:54:47;9.73;;;5.18;;
26157;SDS011;67284;44.782;10.282;2023-08-01T16:59:39;10.43;;;5.10;;
26157;SDS011;67284;44.782;10.282;2023-08-01T17:04:32;9.40;;;5.47;;
26157;SDS011;67284;44.782;10.282;2023-08-01T17:09:24;7.95;;;5.45;;
26157;SDS011;67284;44.782;10.282;2023-08-01T17:14:16;10.85;;;5.10;;
26157;SDS011;67284;44.782;10.282;2023-08-01T17:19:08;13.60;;;5.30;;
26157;SDS011;67284;44.782;10.282;2023-08-01T17:24:00;11.65;;;5.68;;
26157;SDS011;67284;44.782;10.282;2023-08-01T17:28:52;8.43;;;5.70;;
26157;SDS011;67284;44.782;10.282;2023-08-01T17:33:44;7.82;;;4.53;;
26157;SDS011;67284;44.782;10.282;2023-08-01T17:38:36;9.45;;;5.25;;
26157;SDS011;67284;44.782;10.282;2023-08-01T17:43:31;12.00;;;4.88;;
26157;SDS011;67284;44.782;10.282;2023-08-01T17:48:23;12.52;;;5.13;;
26157;SDS011;67284;44.782;10.282;2023-08-01T17:53:14;8.50;;;5.20;;
26157;SDS011;67284;44.782;10.282;2023-08-01T17:58:06;10.52;;;5.50;;
26157;SDS011;67284;44.782;10.282;2023-08-01T18:02:58;11.40;;;5.80;;
26157;SDS011;67284;44.782;10.282;2023-08-01T18:07:50;9.48;;;6.10;;
26157;SDS011;67284;44.782;10.282;2023-08-01T18:12:45;9.73;;;4.97;;
26157;SDS011;67284;44.782;10.282;2023-08-01T18:17:38;8.05;;;4.90;;
26157;SDS011;67284;44.782;10.282;2023-08-01T18:22:30;10.00;;;5.85;;
26157;SDS011;67284;44.782;10.282;2023-08-01T18:27:22;8.45;;;4.93;;
26157;SDS011;67284;44.782;10.282;2023-08-01T18:32:14;12.77;;;6.10;;
26157;SDS011;67284;44.782;10.282;2023-08-01T18:37:05;11.32;;;5.57;;
26157;SDS011;67284;44.782;10.282;2023-08-01T18:41:57;9.20;;;5.28;;
26157;SDS011;67284;44.782;10.282;2023-08-01T18:46:51;11.70;;;6.18;;
26157;SDS011;67284;44.782;10.282;2023-08-01T18:51:43;9.30;;;5.68;;
26157;SDS011;67284;44.782;10.282;2023-08-01T18:56:35;10.95;;;5.60;;
26157;SDS011;67284;44.782;10.282;2023-08-01T19:01:27;10.18;;;5.32;;
26157;SDS011;67284;44.782;10.282;2023-08-01T19:06:20;11.07;;;5.20;;
26157;SDS011;67284;44.782;10.282;2023-08-01T19:11:16;13.43;;;5.60;;
26157;SDS011;67284;44.782;10.282;2023-08-01T19:16:08;9.52;;;5.00;;
26157;SDS011;67284;44.782;10.282;2023-08-01T19:21:00;10.10;;;6.00;;
26157;SDS011;67284;44.782;10.282;2023-08-01T19:25:53;13.35;;;6.28;;
26157;SDS011;67284;44.782;10.282;2023-08-01T19:30:46;12.35;;;5.65;;
26157;SDS011;67284;44.782;10.282;2023-08-01T19:35:41;14.02;;;6.25;;
26157;SDS011;67284;44.782;10.282;2023-08-01T19:40:37;10.07;;;6.35;;
26157;SDS011;67284;44.782;10.282;2023-08-01T19:45:31;10.85;;;6.63;;
26157;SDS011;67284;44.782;10.282;2023-08-01T19:50:22;8.90;;;5.63;;
26157;SDS011;67284;44.782;10.282;2023-08-01T19:55:16;9.77;;;6.07;;
26157;SDS011;67284;44.782;10.282;2023-08-01T20:00:08;11.95;;;5.63;;
26157;SDS011;67284;44.782;10.282;2023-08-01T20:05:05;12.63;;;6.43;;
26157;SDS011;67284;44.782;10.282;2023-08-01T20:09:58;9.90;;;5.18;;
26157;SDS011;67284;44.782;10.282;2023-08-01T20:14:50;8.73;;;5.68;;
26157;SDS011;67284;44.782;10.282;2023-08-01T20:19:42;11.05;;;6.07;;
26157;SDS011;67284;44.782;10.282;2023-08-01T20:24:34;10.98;;;6.07;;
26157;SDS011;67284;44.782;10.282;2023-08-01T20:29:27;11.98;;;5.90;;
26157;SDS011;67284;44.782;10.282;2023-08-01T20:34:19;14.95;;;6.55;;
26157;SDS011;67284;44.782;10.282;2023-08-01T20:39:11;15.70;;;6.72;;
26157;SDS011;67284;44.782;10.282;2023-08-01T20:44:03;15.88;;;6.47;;
26157;SDS011;67284;44.782;10.282;2023-08-01T20:48:55;12.45;;;5.63;;
26157;SDS011;67284;44.782;10.282;2023-08-01T20:53:46;12.18;;;6.07;;
26157;SDS011;67284;44.782;10.282;2023-08-01T20:58:39;9.35;;;5.63;;
26157;SDS011;67284;44.782;10.282;2023-08-01T21:03:30;10.95;;;6.05;;
26157;SDS011;67284;44.782;10.282;2023-08-01T21:08:22;12.82;;;6.30;;
26157;SDS011;67284;44.782;10.282;2023-08-01T21:13:14;8.63;;;5.65;;
26157;SDS011;67284;44.782;10.282;2023-08-01T21:18:06;9.57;;;5.68;;
26157;SDS011;67284;44.782;10.282;2023-08-01T21:22:58;11.15;;;5.75;;
26157;SDS011;67284;44.782;10.282;2023-08-01T21:27:50;12.85;;;5.97;;
26157;SDS011;67284;44.782;10.282;2023-08-01T21:32:42;7.13;;;4.78;;
26157;SDS011;67284;44.782;10.282;2023-08-01T21:37:34;10.80;;;5.78;;
26157;SDS011;67284;44.782;10.282;2023-08-01T21:42:26;14.13;;;6.05;;
26157;SDS011;67284;44.782;10.282;2023-08-01T21:47:18;14.57;;;5.90;;
26157;SDS011;67284;44.782;10.282;2023-08-01T21:52:10;10.70;;;5.47;;
26157;SDS011;67284;44.782;10.282;2023-08-01T21:57:02;13.40;;;5.85;;
26157;SDS011;67284;44.782;10.282;2023-08-01T22:01:54;12.45;;;6.05;;
26157;SDS011;67284;44.782;10.282;2023-08-01T22:06:46;14.88;;;6.35;;
26157;SDS011;67284;44.782;10.282;2023-08-01T22:11:38;12.85;;;5.85;;
26157;SDS011;67284;44.782;10.282;2023-08-01T22:16:30;10.80;;;5.28;;
26157;SDS011;67284;44.782;10.282;2023-08-01T22:21:22;10.40;;;5.43;;
26157;SDS011;67284;44.782;10.282;2023-08-01T22:26:13;8.32;;;5.35;;
26157;SDS011;67284;44.782;10.282;2023-08-01T22:31:05;11.23;;;6.53;;
26157;SDS011;67284;44.782;10.282;2023-08-01T22:35:57;16.35;;;6.05;;
26157;SDS011;67284;44.782;10.282;2023-08-01T22:40:50;12.30;;;5.90;;
26157;SDS011;67284;44.782;10.282;2023-08-01T22:45:42;16.58;;;7.22;;
26157;SDS011;67284;44.782;10.282;2023-08-01T22:50:34;13.57;;;5.90;;
26157;SDS011;67284;44.782;10.282;2023-08-01T22:55:26;12.60;;;6.90;;
26157;SDS011;67284;44.782;10.282;2023-08-01T23:00:18;11.40;;;6.05;;
26157;SDS011;67284;44.782;10.282;2023-08-01T23:05:11;14.15;;;6.72;;
26157;SDS011;67284;44.782;10.282;2023-08-01T23:10:04;12.32;;;6.10;;
26157;SDS011;67284;44.782;10.282;2023-08-01T23:14:57;12.50;;;6.53;;
26157;SDS011;67284;44.782;10.282;2023-08-01T23:19:50;19.17;;;7.22;;
26157;SDS011;67284;44.782;10.282;2023-08-01T23:24:42;17.83;;;7.43;;
26157;SDS011;67284;44.782;10.282;2023-08-01T23:29:39;12.55;;;6.70;;
26157;SDS011;67284;44.782;10.282;2023-08-01T23:34:31;14.48;;;6.30;;
26157;SDS011;67284;44.782;10.282;2023-08-01T23:39:23;12.48;;;5.80;;
26157;SDS011;67284;44.782;10.282;2023-08-01T23:44:15;13.88;;;6.43;;
26157;SDS011;67284;44.782;10.282;2023-08-01T23:49:07;12.38;;;5.47;;
26157;SDS011;67284;44.782;10.282;2023-08-01T23:53:59;12.27;;;6.03;;
26157;SDS011;67284;44.782;10.282;2023-08-01T23:58:50;12.35;;;6.50;;
